sensor_id;sensor_type;location;lat;lon;timestamp;P1;durP1;ratioP1;P2;durP2;ratioP2
37891;SDS011;45797;47.466;9.486;2023-05-16T00:09:49;3.72;;;1.80;;
37891;SDS011;45797;47.466;9.486;2023-05-16T00:19:59;2.92;;;1.50;;
37891;SDS011;45797;47.466;9.486;2023-05-16T00:25:01;3.35;;;1.88;;
37891;SDS011;45797;47.466;9.486;2023-05-16T00:30:02;4.93;;;1.60;;
37891;SDS011;45797;47.466;9.486;2023-05-16T00:35:04;2.90;;;1.60;;
37891;SDS011;45797;47.466;9.486;2023-05-16T00:40:07;5.28;;;1.70;;
37891;SDS011;45797;47.466;9.486;2023-05-16T00:45:09;6.95;;;1.90;;
37891;SDS011;45797;47.466;9.486;2023-05-16T00:55:16;3.33;;;1.52;;
37891;SDS011;45797;47.466;9.486;2023-05-16T01:00:18;3.47;;;1.60;;
37891;SDS011;45797;47.466;9.486;2023-05-16T01:05:19;3.00;;;1.42;;
37891;SDS011;45797;47.466;9.486;2023-05-16T01:10:20;3.38;;;1.65;;
37891;SDS011;45797;47.466;9.486;2023-05-16T01:15:21;3.22;;;1.45;;
37891;SDS011;45797;47.466;9.486;2023-05-16T01:31:47;3.70;;;1.80;;
37891;SDS011;45797;47.466;9.486;2023-05-16T01:36:51;3.67;;;1.60;;
37891;SDS011;45797;47.466;9.486;2023-05-16T01:42:13;2.47;;;1.50;;
37891;SDS011;45797;47.466;9.486;2023-05-16T01:47:15;3.97;;;1.90;;
37891;SDS011;45797;47.466;9.486;2023-05-16T01:52:31;3.40;;;1.63;;
37891;SDS011;45797;47.466;9.486;2023-05-16T02:02:42;3.75;;;1.95;;
37891;SDS011;45797;47.466;9.486;2023-05-16T02:12:46;3.70;;;1.90;;
37891;SDS011;45797;47.466;9.486;2023-05-16T02:17:54;4.45;;;2.25;;
37891;SDS011;45797;47.466;9.486;2023-05-16T02:22:54;3.53;;;1.92;;
37891;SDS011;45797;47.466;9.486;2023-05-16T02:28:02;4.05;;;2.13;;
37891;SDS011;45797;47.466;9.486;2023-05-16T02:33:03;3.60;;;1.85;;
37891;SDS011;45797;47.466;9.486;2023-05-16T02:43:25;5.75;;;2.10;;
37891;SDS011;45797;47.466;9.486;2023-05-16T02:53:32;5.15;;;2.33;;
37891;SDS011;45797;47.466;9.486;2023-05-16T02:58:35;4.03;;;2.17;;
37891;SDS011;45797;47.466;9.486;2023-05-16T03:03:37;4.57;;;2.20;;
37891;SDS011;45797;47.466;9.486;2023-05-16T03:08:37;4.88;;;2.33;;
37891;SDS011;45797;47.466;9.486;2023-05-16T03:13:37;3.90;;;2.00;;
37891;SDS011;45797;47.466;9.486;2023-05-16T03:23:42;4.55;;;2.42;;
37891;SDS011;45797;47.466;9.486;2023-05-16T03:28:43;4.93;;;2.55;;
37891;SDS011;45797;47.466;9.486;2023-05-16T03:39:16;4.75;;;2.20;;
37891;SDS011;45797;47.466;9.486;2023-05-16T03:44:16;4.90;;;2.45;;
37891;SDS011;45797;47.466;9.486;2023-05-16T03:49:16;4.03;;;2.08;;
37891;SDS011;45797;47.466;9.486;2023-05-16T03:54:27;6.22;;;3.10;;
37891;SDS011;45797;47.466;9.486;2023-05-16T03:59:27;7.32;;;3.03;;
37891;SDS011;45797;47.466;9.486;2023-05-16T04:09:59;6.07;;;2.40;;
37891;SDS011;45797;47.466;9.486;2023-05-16T04:15:01;4.10;;;1.98;;
37891;SDS011;45797;47.466;9.486;2023-05-16T04:20:03;3.92;;;2.10;;
37891;SDS011;45797;47.466;9.486;2023-05-16T04:25:08;4.15;;;2.30;;
37891;SDS011;45797;47.466;9.486;2023-05-16T04:30:11;4.28;;;2.10;;
37891;SDS011;45797;47.466;9.486;2023-05-16T04:35:24;6.28;;;2.67;;
37891;SDS011;45797;47.466;9.486;2023-05-16T04:40:26;8.00;;;2.83;;
37891;SDS011;45797;47.466;9.486;2023-05-16T04:45:27;6.38;;;3.03;;
37891;SDS011;45797;47.466;9.486;2023-05-16T04:50:35;6.07;;;2.97;;
37891;SDS011;45797;47.466;9.486;2023-05-16T04:55:46;5.30;;;2.47;;
37891;SDS011;45797;47.466;9.486;2023-05-16T05:00:47;6.05;;;3.13;;
37891;SDS011;45797;47.466;9.486;2023-05-16T05:05:49;6.70;;;3.20;;
37891;SDS011;45797;47.466;9.486;2023-05-16T05:10:51;8.68;;;3.42;;
37891;SDS011;45797;47.466;9.486;2023-05-16T05:15:57;6.65;;;3.28;;
37891;SDS011;45797;47.466;9.486;2023-05-16T05:20:58;6.53;;;3.10;;
37891;SDS011;45797;47.466;9.486;2023-05-16T05:31:03;7.13;;;3.67;;
37891;SDS011;45797;47.466;9.486;2023-05-16T05:36:16;7.60;;;3.70;;
37891;SDS011;45797;47.466;9.486;2023-05-16T05:46:23;7.32;;;3.38;;
37891;SDS011;45797;47.466;9.486;2023-05-16T05:51:24;6.15;;;3.45;;
37891;SDS011;45797;47.466;9.486;2023-05-16T05:56:26;6.75;;;3.70;;
37891;SDS011;45797;47.466;9.486;2023-05-16T06:01:26;6.97;;;3.60;;
37891;SDS011;45797;47.466;9.486;2023-05-16T06:06:38;5.97;;;3.22;;
37891;SDS011;45797;47.466;9.486;2023-05-16T06:11:39;6.95;;;3.30;;
37891;SDS011;45797;47.466;9.486;2023-05-16T06:16:51;6.95;;;3.50;;
37891;SDS011;45797;47.466;9.486;2023-05-16T06:21:52;5.40;;;2.95;;
37891;SDS011;45797;47.466;9.486;2023-05-16T06:27:01;5.55;;;3.17;;
37891;SDS011;45797;47.466;9.486;2023-05-16T06:32:03;7.18;;;3.75;;
37891;SDS011;45797;47.466;9.486;2023-05-16T06:37:05;7.50;;;3.40;;
37891;SDS011;45797;47.466;9.486;2023-05-16T06:47:12;8.85;;;4.63;;
37891;SDS011;45797;47.466;9.486;2023-05-16T06:52:20;7.45;;;3.35;;
37891;SDS011;45797;47.466;9.486;2023-05-16T07:02:25;8.80;;;4.50;;
37891;SDS011;45797;47.466;9.486;2023-05-16T07:07:26;9.77;;;4.53;;
37891;SDS011;45797;47.466;9.486;2023-05-16T07:12:27;9.32;;;4.40;;
37891;SDS011;45797;47.466;9.486;2023-05-16T07:17:28;11.10;;;4.65;;
37891;SDS011;45797;47.466;9.486;2023-05-16T07:22:31;10.02;;;4.55;;
37891;SDS011;45797;47.466;9.486;2023-05-16T07:27:31;8.73;;;4.20;;
37891;SDS011;45797;47.466;9.486;2023-05-16T07:37:42;10.48;;;5.22;;
37891;SDS011;45797;47.466;9.486;2023-05-16T07:42:44;11.45;;;5.65;;
37891;SDS011;45797;47.466;9.486;2023-05-16T07:47:46;11.70;;;5.50;;
37891;SDS011;45797;47.466;9.486;2023-05-16T07:52:46;11.52;;;5.75;;
37891;SDS011;45797;47.466;9.486;2023-05-16T08:03:01;10.63;;;5.78;;
37891;SDS011;45797;47.466;9.486;2023-05-16T08:08:02;14.93;;;6.78;;
37891;SDS011;45797;47.466;9.486;2023-05-16T08:13:05;12.43;;;6.47;;
37891;SDS011;45797;47.466;9.486;2023-05-16T08:18:05;16.85;;;5.80;;
37891;SDS011;45797;47.466;9.486;2023-05-16T08:23:13;14.48;;;6.43;;
37891;SDS011;45797;47.466;9.486;2023-05-16T08:33:16;12.98;;;6.53;;
37891;SDS011;45797;47.466;9.486;2023-05-16T08:38:18;12.07;;;5.80;;
37891;SDS011;45797;47.466;9.486;2023-05-16T08:48:31;13.05;;;6.50;;
37891;SDS011;45797;47.466;9.486;2023-05-16T08:53:38;13.95;;;5.57;;
37891;SDS011;45797;47.466;9.486;2023-05-16T08:58:44;11.75;;;5.93;;
37891;SDS011;45797;47.466;9.486;2023-05-16T09:03:46;12.88;;;6.40;;
37891;SDS011;45797;47.466;9.486;2023-05-16T09:08:49;13.05;;;5.97;;
37891;SDS011;45797;47.466;9.486;2023-05-16T09:13:51;12.43;;;5.43;;
37891;SDS011;45797;47.466;9.486;2023-05-16T09:18:54;13.15;;;6.65;;
37891;SDS011;45797;47.466;9.486;2023-05-16T09:24:07;12.02;;;6.00;;
37891;SDS011;45797;47.466;9.486;2023-05-16T09:29:11;12.65;;;5.75;;
37891;SDS011;45797;47.466;9.486;2023-05-16T09:34:12;12.20;;;6.43;;
37891;SDS011;45797;47.466;9.486;2023-05-16T09:39:14;12.45;;;6.63;;
37891;SDS011;45797;47.466;9.486;2023-05-16T09:44:16;12.38;;;6.57;;
37891;SDS011;45797;47.466;9.486;2023-05-16T09:49:19;12.02;;;7.30;;
37891;SDS011;45797;47.466;9.486;2023-05-16T09:54:29;16.23;;;8.57;;
37891;SDS011;45797;47.466;9.486;2023-05-16T09:59:34;11.10;;;6.20;;
37891;SDS011;45797;47.466;9.486;2023-05-16T10:04:37;10.70;;;6.10;;
37891;SDS011;45797;47.466;9.486;2023-05-16T10:09:48;13.27;;;6.43;;
37891;SDS011;45797;47.466;9.486;2023-05-16T10:14:51;10.77;;;6.13;;
37891;SDS011;45797;47.466;9.486;2023-05-16T10:19:51;17.60;;;9.25;;
37891;SDS011;45797;47.466;9.486;2023-05-16T10:35:56;12.23;;;6.22;;
37891;SDS011;45797;47.466;9.486;2023-05-16T10:40:59;10.75;;;6.55;;
37891;SDS011;45797;47.466;9.486;2023-05-16T10:46:06;11.05;;;6.47;;
37891;SDS011;45797;47.466;9.486;2023-05-16T10:56:43;15.95;;;7.32;;
37891;SDS011;45797;47.466;9.486;2023-05-16T11:01:51;19.00;;;7.50;;
37891;SDS011;45797;47.466;9.486;2023-05-16T11:06:52;13.65;;;7.35;;
37891;SDS011;45797;47.466;9.486;2023-05-16T11:11:57;16.17;;;8.05;;
37891;SDS011;45797;47.466;9.486;2023-05-16T11:17:13;14.90;;;7.57;;
37891;SDS011;45797;47.466;9.486;2023-05-16T11:22:31;16.27;;;7.55;;
37891;SDS011;45797;47.466;9.486;2023-05-16T11:27:52;16.38;;;7.53;;
37891;SDS011;45797;47.466;9.486;2023-05-16T11:32:53;20.50;;;8.82;;
37891;SDS011;45797;47.466;9.486;2023-05-16T11:37:56;15.43;;;7.90;;
37891;SDS011;45797;47.466;9.486;2023-05-16T11:43:02;16.88;;;8.02;;
37891;SDS011;45797;47.466;9.486;2023-05-16T11:48:04;17.65;;;7.65;;
37891;SDS011;45797;47.466;9.486;2023-05-16T11:53:05;18.55;;;8.73;;
37891;SDS011;45797;47.466;9.486;2023-05-16T12:03:18;21.17;;;7.75;;
37891;SDS011;45797;47.466;9.486;2023-05-16T12:08:29;16.55;;;7.65;;
37891;SDS011;45797;47.466;9.486;2023-05-16T12:13:30;18.40;;;8.45;;
37891;SDS011;45797;47.466;9.486;2023-05-16T12:18:37;17.05;;;8.02;;
37891;SDS011;45797;47.466;9.486;2023-05-16T12:23:40;17.20;;;7.97;;
37891;SDS011;45797;47.466;9.486;2023-05-16T12:28:43;17.13;;;7.82;;
37891;SDS011;45797;47.466;9.486;2023-05-16T12:33:44;14.48;;;7.03;;
37891;SDS011;45797;47.466;9.486;2023-05-16T12:38:46;15.40;;;7.10;;
37891;SDS011;45797;47.466;9.486;2023-05-16T12:44:22;18.02;;;7.10;;
37891;SDS011;45797;47.466;9.486;2023-05-16T12:54:48;18.15;;;7.70;;
37891;SDS011;45797;47.466;9.486;2023-05-16T12:59:58;14.77;;;6.97;;
37891;SDS011;45797;47.466;9.486;2023-05-16T13:04:58;15.02;;;6.57;;
37891;SDS011;45797;47.466;9.486;2023-05-16T13:10:01;15.52;;;6.82;;
37891;SDS011;45797;47.466;9.486;2023-05-16T13:15:04;17.45;;;7.03;;
37891;SDS011;45797;47.466;9.486;2023-05-16T13:20:10;13.77;;;6.43;;
37891;SDS011;45797;47.466;9.486;2023-05-16T13:25:15;17.13;;;6.38;;
37891;SDS011;45797;47.466;9.486;2023-05-16T13:30:17;13.85;;;6.40;;
37891;SDS011;45797;47.466;9.486;2023-05-16T13:35:20;15.13;;;6.57;;
37891;SDS011;45797;47.466;9.486;2023-05-16T13:40:22;14.52;;;6.30;;
37891;SDS011;45797;47.466;9.486;2023-05-16T13:45:22;13.43;;;6.13;;
37891;SDS011;45797;47.466;9.486;2023-05-16T13:50:23;11.55;;;5.80;;
37891;SDS011;45797;47.466;9.486;2023-05-16T13:55:24;12.75;;;6.25;;
37891;SDS011;45797;47.466;9.486;2023-05-16T14:00:27;15.10;;;6.38;;
37891;SDS011;45797;47.466;9.486;2023-05-16T14:05:30;12.65;;;6.65;;
37891;SDS011;45797;47.466;9.486;2023-05-16T14:10:30;15.98;;;7.32;;
37891;SDS011;45797;47.466;9.486;2023-05-16T14:15:30;13.77;;;6.65;;
37891;SDS011;45797;47.466;9.486;2023-05-16T14:20:32;13.60;;;6.68;;
37891;SDS011;45797;47.466;9.486;2023-05-16T14:25:32;15.00;;;6.53;;
37891;SDS011;45797;47.466;9.486;2023-05-16T14:30:34;13.32;;;6.25;;
37891;SDS011;45797;47.466;9.486;2023-05-16T14:35:36;17.65;;;6.85;;
37891;SDS011;45797;47.466;9.486;2023-05-16T14:40:47;14.88;;;7.88;;
37891;SDS011;45797;47.466;9.486;2023-05-16T14:45:49;17.00;;;7.57;;
37891;SDS011;45797;47.466;9.486;2023-05-16T14:56:07;15.48;;;7.72;;
37891;SDS011;45797;47.466;9.486;2023-05-16T15:01:07;13.73;;;6.70;;
37891;SDS011;45797;47.466;9.486;2023-05-16T15:06:07;13.63;;;7.00;;
37891;SDS011;45797;47.466;9.486;2023-05-16T15:11:23;12.98;;;7.20;;
37891;SDS011;45797;47.466;9.486;2023-05-16T15:16:25;12.60;;;6.45;;
37891;SDS011;45797;47.466;9.486;2023-05-16T15:21:26;13.18;;;6.22;;
37891;SDS011;45797;47.466;9.486;2023-05-16T15:26:27;13.60;;;5.95;;
37891;SDS011;45797;47.466;9.486;2023-05-16T15:31:28;13.45;;;6.80;;
37891;SDS011;45797;47.466;9.486;2023-05-16T15:36:31;13.75;;;7.03;;
37891;SDS011;45797;47.466;9.486;2023-05-16T15:41:33;11.82;;;6.32;;
37891;SDS011;45797;47.466;9.486;2023-05-16T15:46:39;14.00;;;6.93;;
37891;SDS011;45797;47.466;9.486;2023-05-16T15:51:40;12.77;;;6.68;;
37891;SDS011;45797;47.466;9.486;2023-05-16T15:56:41;12.07;;;6.18;;
37891;SDS011;45797;47.466;9.486;2023-05-16T16:01:50;12.40;;;6.72;;
37891;SDS011;45797;47.466;9.486;2023-05-16T16:06:52;12.73;;;5.65;;
37891;SDS011;45797;47.466;9.486;2023-05-16T16:17:11;14.13;;;6.85;;
37891;SDS011;45797;47.466;9.486;2023-05-16T16:22:12;14.13;;;6.50;;
37891;SDS011;45797;47.466;9.486;2023-05-16T16:27:14;12.05;;;5.47;;
37891;SDS011;45797;47.466;9.486;2023-05-16T16:32:22;11.68;;;6.20;;
37891;SDS011;45797;47.466;9.486;2023-05-16T16:42:38;13.45;;;6.97;;
37891;SDS011;45797;47.466;9.486;2023-05-16T16:47:48;12.38;;;6.45;;
37891;SDS011;45797;47.466;9.486;2023-05-16T16:58:01;9.95;;;4.95;;
37891;SDS011;45797;47.466;9.486;2023-05-16T17:03:02;10.52;;;4.93;;
37891;SDS011;45797;47.466;9.486;2023-05-16T17:08:15;10.15;;;4.60;;
37891;SDS011;45797;47.466;9.486;2023-05-16T17:13:15;8.02;;;4.05;;
37891;SDS011;45797;47.466;9.486;2023-05-16T17:18:17;8.18;;;4.13;;
37891;SDS011;45797;47.466;9.486;2023-05-16T17:23:20;9.18;;;3.65;;
37891;SDS011;45797;47.466;9.486;2023-05-16T17:28:33;6.78;;;3.85;;
37891;SDS011;45797;47.466;9.486;2023-05-16T17:33:33;8.60;;;3.95;;
37891;SDS011;45797;47.466;9.486;2023-05-16T17:38:41;7.80;;;3.72;;
37891;SDS011;45797;47.466;9.486;2023-05-16T17:43:41;7.32;;;4.00;;
37891;SDS011;45797;47.466;9.486;2023-05-16T17:48:43;9.02;;;3.90;;
37891;SDS011;45797;47.466;9.486;2023-05-16T17:58:54;11.63;;;3.88;;
37891;SDS011;45797;47.466;9.486;2023-05-16T18:03:56;8.05;;;3.22;;
37891;SDS011;45797;47.466;9.486;2023-05-16T18:08:58;9.35;;;3.50;;
37891;SDS011;45797;47.466;9.486;2023-05-16T18:14:01;10.40;;;3.95;;
37891;SDS011;45797;47.466;9.486;2023-05-16T18:19:01;7.38;;;3.70;;
37891;SDS011;45797;47.466;9.486;2023-05-16T18:24:03;8.43;;;3.42;;
37891;SDS011;45797;47.466;9.486;2023-05-16T18:29:15;8.15;;;2.97;;
37891;SDS011;45797;47.466;9.486;2023-05-16T18:34:26;7.30;;;3.35;;
37891;SDS011;45797;47.466;9.486;2023-05-16T18:39:29;6.85;;;3.45;;
37891;SDS011;45797;47.466;9.486;2023-05-16T18:44:30;8.52;;;3.33;;
37891;SDS011;45797;47.466;9.486;2023-05-16T18:49:31;8.23;;;3.70;;
37891;SDS011;45797;47.466;9.486;2023-05-16T18:54:40;7.13;;;3.40;;
37891;SDS011;45797;47.466;9.486;2023-05-16T18:59:42;7.03;;;3.13;;
37891;SDS011;45797;47.466;9.486;2023-05-16T19:04:50;7.95;;;3.33;;
37891;SDS011;45797;47.466;9.486;2023-05-16T19:09:52;6.97;;;2.97;;
37891;SDS011;45797;47.466;9.486;2023-05-16T19:14:52;6.10;;;2.95;;
37891;SDS011;45797;47.466;9.486;2023-05-16T19:19:55;6.20;;;2.90;;
37891;SDS011;45797;47.466;9.486;2023-05-16T19:35:22;6.50;;;3.22;;
37891;SDS011;45797;47.466;9.486;2023-05-16T19:40:22;6.63;;;3.05;;
37891;SDS011;45797;47.466;9.486;2023-05-16T19:45:39;5.43;;;2.55;;
37891;SDS011;45797;47.466;9.486;2023-05-16T19:50:41;5.05;;;2.60;;
37891;SDS011;45797;47.466;9.486;2023-05-16T19:55:44;6.22;;;2.88;;
37891;SDS011;45797;47.466;9.486;2023-05-16T20:11:05;5.28;;;2.65;;
37891;SDS011;45797;47.466;9.486;2023-05-16T20:16:05;6.88;;;2.67;;
37891;SDS011;45797;47.466;9.486;2023-05-16T20:21:06;4.55;;;2.10;;
37891;SDS011;45797;47.466;9.486;2023-05-16T20:26:08;4.97;;;2.25;;
37891;SDS011;45797;47.466;9.486;2023-05-16T20:31:20;5.05;;;2.28;;
37891;SDS011;45797;47.466;9.486;2023-05-16T20:36:33;4.60;;;2.05;;
37891;SDS011;45797;47.466;9.486;2023-05-16T20:41:33;4.28;;;1.65;;
37891;SDS011;45797;47.466;9.486;2023-05-16T20:46:35;6.93;;;1.98;;
37891;SDS011;45797;47.466;9.486;2023-05-16T20:51:37;6.43;;;2.13;;
37891;SDS011;45797;47.466;9.486;2023-05-16T20:56:38;3.63;;;1.73;;
37891;SDS011;45797;47.466;9.486;2023-05-16T21:01:53;3.70;;;2.00;;
37891;SDS011;45797;47.466;9.486;2023-05-16T21:06:54;3.53;;;1.92;;
37891;SDS011;45797;47.466;9.486;2023-05-16T21:12:01;3.00;;;1.58;;
37891;SDS011;45797;47.466;9.486;2023-05-16T21:17:17;7.93;;;2.15;;
37891;SDS011;45797;47.466;9.486;2023-05-16T21:22:19;4.88;;;1.90;;
37891;SDS011;45797;47.466;9.486;2023-05-16T21:27:20;6.03;;;1.90;;
37891;SDS011;45797;47.466;9.486;2023-05-16T21:32:22;4.30;;;1.80;;
37891;SDS011;45797;47.466;9.486;2023-05-16T21:42:28;3.70;;;1.73;;
37891;SDS011;45797;47.466;9.486;2023-05-16T21:52:45;5.93;;;2.00;;
37891;SDS011;45797;47.466;9.486;2023-05-16T21:57:46;3.15;;;1.70;;
37891;SDS011;45797;47.466;9.486;2023-05-16T22:02:47;2.83;;;1.50;;
37891;SDS011;45797;47.466;9.486;2023-05-16T22:07:48;3.17;;;1.40;;
37891;SDS011;45797;47.466;9.486;2023-05-16T22:12:49;5.38;;;1.85;;
37891;SDS011;45797;47.466;9.486;2023-05-16T22:18:06;4.72;;;1.95;;
37891;SDS011;45797;47.466;9.486;2023-05-16T22:33:30;2.70;;;1.70;;
37891;SDS011;45797;47.466;9.486;2023-05-16T22:38:30;6.65;;;1.77;;
37891;SDS011;45797;47.466;9.486;2023-05-16T22:43:31;7.20;;;2.53;;
37891;SDS011;45797;47.466;9.486;2023-05-16T22:48:32;6.20;;;1.38;;
37891;SDS011;45797;47.466;9.486;2023-05-16T22:53:33;3.80;;;1.73;;
37891;SDS011;45797;47.466;9.486;2023-05-16T22:58:39;2.72;;;1.55;;
37891;SDS011;45797;47.466;9.486;2023-05-16T23:03:41;3.70;;;1.60;;
37891;SDS011;45797;47.466;9.486;2023-05-16T23:08:43;4.65;;;1.48;;
37891;SDS011;45797;47.466;9.486;2023-05-16T23:13:43;6.13;;;1.70;;
37891;SDS011;45797;47.466;9.486;2023-05-16T23:18:51;5.28;;;2.13;;
37891;SDS011;45797;47.466;9.486;2023-05-16T23:23:57;4.38;;;1.40;;
37891;SDS011;45797;47.466;9.486;2023-05-16T23:34:11;5.82;;;1.67;;
37891;SDS011;45797;47.466;9.486;2023-05-16T23:39:12;4.47;;;1.67;;
37891;SDS011;45797;47.466;9.486;2023-05-16T23:44:14;3.47;;;1.83;;
37891;SDS011;45797;47.466;9.486;2023-05-16T23:49:16;3.25;;;1.85;;
37891;SDS011;45797;47.466;9.486;2023-05-16T23:54:24;6.35;;;1.58;;
37891;SDS011;45797;47.466;9.486;2023-05-16T23:59:24;4.10;;;1.52;;
